Time;durP1;ratioP1;P1;durP2;ratioP2;P2;SDS_P1;SDS_P2;PMS_P1;PMS_P2;Temp;Humidity;BMP_temperature;BMP_pressure;BME280_temperature;BME280_humidity;BME280_pressure;Samples;Min_cycle;Max_cycle;Signal;HPM_P1;HPM_P2
2021/12/29 00:00:10;;;;;;;1.83;1.13;;;19.60;51.90;;;;;;5032151;28;20465;-70
2021/12/29 00:02:36;;;;;;;2.80;1.43;;;19.70;51.90;;;;;;5031981;28;20425;-70
2021/12/29 00:05:03;;;;;;;2.20;1.00;;;19.80;52.00;;;;;;5032336;28;20529;-69
2021/12/29 00:07:28;;;;;;;2.00;1.03;;;19.70;52.00;;;;;;5031949;28;20419;-69
2021/12/29 00:09:55;;;;;;;1.43;0.73;;;19.70;52.00;;;;;;5031901;28;20933;-69
2021/12/29 00:12:25;;;;;;;3.63;1.00;;;19.70;52.00;;;;;;5044632;28;20274;-69
2021/12/29 00:14:52;;;;;;;0.80;0.80;;;19.70;52.00;;;;;;5052121;28;20834;-69
2021/12/29 00:17:18;;;;;;;4.40;0.90;;;19.70;52.00;;;;;;5051845;28;20422;-70
2021/12/29 00:19:43;;;;;;;1.00;0.90;;;19.70;52.00;;;;;;5051789;28;20410;-70
2021/12/29 00:22:09;;;;;;;2.60;1.43;;;19.70;52.00;;;;;;5051644;28;20251;-70
2021/12/29 00:24:35;;;;;;;1.77;0.90;;;19.70;52.00;;;;;;5051347;28;20673;-69
2021/12/29 00:27:00;;;;;;;1.60;0.90;;;19.70;52.20;;;;;;5051606;28;20280;-69
2021/12/29 00:29:26;;;;;;;2.20;1.20;;;19.90;52.10;;;;;;5051794;28;20172;-70
2021/12/29 00:31:51;;;;;;;1.43;1.10;;;19.70;52.10;;;;;;5050063;28;20180;-70
2021/12/29 00:34:17;;;;;;;1.50;0.83;;;19.70;52.10;;;;;;5051400;28;20192;-70
2021/12/29 00:36:42;;;;;;;1.83;1.00;;;19.70;52.00;;;;;;5051378;28;20184;-70
2021/12/29 00:39:08;;;;;;;2.10;1.10;;;20.30;52.30;;;;;;5051141;28;20510;-70
2021/12/29 00:41:34;;;;;;;2.97;1.20;;;19.70;52.00;;;;;;5051444;28;20191;-70
2021/12/29 00:43:59;;;;;;;2.53;1.17;;;19.70;52.10;;;;;;5051028;28;20188;-71
2021/12/29 00:46:25;;;;;;;0.93;0.80;;;19.80;52.20;;;;;;5051019;28;20202;-71
2021/12/29 00:48:51;;;;;;;1.10;1.00;;;19.70;52.10;;;;;;5051082;28;20180;-70
2021/12/29 00:51:17;;;;;;;1.53;1.43;;;19.80;52.20;;;;;;5050771;28;20169;-68
2021/12/29 00:53:43;;;;;;;1.27;0.90;;;19.80;63.10;;;;;;5049963;28;20168;-69
2021/12/29 00:56:09;;;;;;;1.10;0.97;;;19.60;52.10;;;;;;5033673;28;20438;-69
2021/12/29 00:58:35;;;;;;;1.53;1.00;;;19.70;52.10;;;;;;5030948;28;20362;-69
2021/12/29 01:01:02;;;;;;;1.03;0.70;;;19.60;52.10;;;;;;5030899;28;20486;-69
2021/12/29 01:03:28;;;;;;;0.83;0.80;;;20.50;61.90;;;;;;5030524;28;20435;-69
2021/12/29 01:05:53;;;;;;;1.33;0.93;;;19.60;52.10;;;;;;5030954;28;20415;-69
2021/12/29 01:08:20;;;;;;;1.07;0.80;;;19.60;52.10;;;;;;5030786;28;20230;-69
2021/12/29 01:10:46;;;;;;;0.70;0.70;;;19.90;52.30;;;;;;5030692;28;20165;-69
2021/12/29 01:13:18;;;;;;;1.33;1.27;;;19.60;52.10;;;;;;5010653;28;20483;-69
2021/12/29 01:16:16;;;;;;;1.50;1.10;;;19.60;52.10;;;;;;5010630;28;20494;-69
2021/12/29 01:18:45;;;;;;;2.50;1.00;;;19.70;52.20;;;;;;5010648;28;20406;-69
2021/12/29 01:21:11;;;;;;;1.10;0.90;;;19.60;52.10;;;;;;5010699;28;20500;-69
2021/12/29 01:23:37;;;;;;;2.20;1.07;;;19.10;63.50;;;;;;5010389;28;20873;-69
2021/12/29 01:26:03;;;;;;;1.43;1.03;;;19.80;52.30;;;;;;5010699;28;20503;-69
2021/12/29 01:28:28;;;;;;;1.00;0.87;;;20.10;52.40;;;;;;5010509;28;20187;-69
2021/12/29 01:30:54;;;;;;;0.70;0.70;;;19.60;52.10;;;;;;5010630;28;20220;-69
2021/12/29 01:33:20;;;;;;;2.80;1.33;;;19.60;52.20;;;;;;5010235;28;20228;-69
2021/12/29 01:35:46;;;;;;;1.73;1.00;;;20.00;52.40;;;;;;5010222;28;21004;-69
2021/12/29 01:38:12;;;;;;;1.33;0.60;;;19.50;52.10;;;;;;5010302;28;20492;-69
2021/12/29 01:40:39;;;;;;;1.93;1.10;;;19.90;52.30;;;;;;5010253;28;20169;-69
2021/12/29 01:43:07;;;;;;;2.40;0.87;;;19.60;52.20;;;;;;5010019;28;20223;-69
2021/12/29 01:45:32;;;;;;;2.40;1.00;;;20.30;52.60;;;;;;5010209;28;20883;-69
2021/12/29 01:48:00;;;;;;;0.83;0.80;;;19.60;52.20;;;;;;5010080;28;20547;-69
2021/12/29 01:50:25;;;;;;;1.47;1.20;;;19.60;52.20;;;;;;5010209;28;20842;-69
2021/12/29 01:52:56;;;;;;;0.90;0.80;;;19.60;52.20;;;;;;5009839;28;20440;-69
2021/12/29 01:55:25;;;;;;;1.47;1.27;;;19.60;52.20;;;;;;5020044;28;20695;-69
2021/12/29 01:57:52;;;;;;;2.97;1.13;;;19.80;52.30;;;;;;5029735;28;20403;-69
2021/12/29 02:00:21;;;;;;;1.30;0.87;;;19.80;52.30;;;;;;5029767;28;20537;-69
2021/12/29 02:02:47;;;;;;;0.80;0.63;;;19.60;52.20;;;;;;5029199;28;20415;-69
2021/12/29 02:05:13;;;;;;;0.97;0.80;;;19.90;52.40;;;;;;5029505;28;20453;-69
2021/12/29 02:07:39;;;;;;;2.80;1.07;;;19.60;52.30;;;;;;5029605;28;20188;-69
2021/12/29 02:10:07;;;;;;;0.90;0.80;;;19.50;52.30;;;;;;5029618;28;20417;-69
2021/12/29 02:12:33;;;;;;;2.63;1.07;;;19.60;52.30;;;;;;5029300;28;20446;-69
2021/12/29 02:14:58;;;;;;;1.67;0.90;;;19.60;52.30;;;;;;5029237;28;20455;-69
2021/12/29 02:17:24;;;;;;;1.57;0.87;;;19.90;52.50;;;;;;5029421;28;20583;-69
2021/12/29 02:19:51;;;;;;;1.07;0.80;;;19.80;52.40;;;;;;5028142;28;20241;-69
2021/12/29 02:24:55;;;;;;;1.20;1.10;;;19.50;52.30;;;;;;5029447;28;20474;-69
2021/12/29 02:27:21;;;;;;;1.13;1.00;;;19.50;52.30;;;;;;5029285;28;20412;-69
2021/12/29 02:29:50;;;;;;;5.23;1.00;;;19.90;52.50;;;;;;5029205;28;20503;-69
2021/12/29 02:32:16;;;;;;;1.00;0.70;;;19.90;52.50;;;;;;5029018;28;20180;-69
2021/12/29 02:34:42;;;;;;;2.30;1.17;;;19.50;52.30;;;;;;5029002;28;21003;-69
2021/12/29 02:37:08;;;;;;;1.43;0.70;;;19.50;52.30;;;;;;5029163;28;20177;-70
2021/12/29 02:39:37;;;;;;;1.03;0.80;;;19.60;52.40;;;;;;5029245;28;20165;-70
2021/12/29 02:42:06;;;;;;;1.63;0.93;;;19.60;52.40;;;;;;5028637;28;20888;-69
2021/12/29 02:44:39;;;;;;;1.13;0.80;;;19.50;52.30;;;;;;5029014;28;20573;-70
2021/12/29 02:47:18;;;;;;;1.53;1.20;;;19.50;53.00;;;;;;5029053;28;20407;-69
2021/12/29 02:49:47;;;;;;;2.40;1.33;;;19.50;52.30;;;;;;5028799;28;20439;-69
2021/12/29 02:52:14;;;;;;;1.93;1.00;;;19.50;52.30;;;;;;5027141;28;20184;-69
2021/12/29 02:54:40;;;;;;;1.27;1.10;;;19.70;52.50;;;;;;5028513;28;20465;-69
2021/12/29 02:57:07;;;;;;;1.10;0.70;;;19.70;52.50;;;;;;5028900;28;20461;-69
2021/12/29 02:59:33;;;;;;;1.50;0.90;;;19.50;52.30;;;;;;5028914;28;20404;-69
2021/12/29 03:01:58;;;;;;;2.40;0.93;;;19.50;52.30;;;;;;5028556;28;20399;-69
2021/12/29 03:04:24;;;;;;;2.23;0.90;;;19.50;52.40;;;;;;5028621;28;20441;-70
2021/12/29 03:06:49;;;;;;;0.90;0.90;;;19.50;52.40;;;;;;5027112;28;20637;-69
2021/12/29 03:09:16;;;;;;;1.20;0.87;;;19.50;52.40;;;;;;5028522;28;20641;-69
2021/12/29 03:11:42;;;;;;;1.90;0.90;;;19.50;52.40;;;;;;5028471;28;20173;-69
2021/12/29 03:14:09;;;;;;;1.30;0.90;;;19.50;52.30;;;;;;5028284;28;20939;-70
2021/12/29 03:16:35;;;;;;;1.63;1.53;;;19.50;52.40;;;;;;5028687;28;20438;-70
2021/12/29 03:19:03;;;;;;;1.10;0.70;;;19.50;52.40;;;;;;5028025;28;20415;-69
2021/12/29 03:21:32;;;;;;;1.27;0.77;;;19.50;52.40;;;;;;5028499;28;20460;-69
2021/12/29 03:23:58;;;;;;;1.77;0.70;;;19.60;52.40;;;;;;5028028;28;20436;-69
2021/12/29 03:26:23;;;;;;;1.53;0.87;;;20.20;52.80;;;;;;5028618;28;20411;-70
2021/12/29 03:28:49;;;;;;;1.07;1.00;;;19.50;52.40;;;;;;5028372;28;20302;-70
2021/12/29 03:31:17;;;;;;;1.87;1.20;;;19.50;52.40;;;;;;5028532;28;20172;-70
2021/12/29 03:33:44;;;;;;;0.60;0.60;;;19.10;63.70;;;;;;5027934;28;20294;-69
2021/12/29 03:36:11;;;;;;;1.40;0.80;;;19.50;52.40;;;;;;5028380;28;20395;-69
2021/12/29 03:38:39;;;;;;;0.93;0.83;;;19.50;52.40;;;;;;5028234;28;20483;-70
2021/12/29 03:41:08;;;;;;;2.90;1.10;;;19.50;52.40;;;;;;5028289;28;20502;-70
2021/12/29 03:43:34;;;;;;;1.10;0.80;;;19.60;59.60;;;;;;5028008;28;20399;-69
2021/12/29 03:46:01;;;;;;;2.60;0.60;;;19.40;52.40;;;;;;5028195;28;20908;-69
2021/12/29 03:48:28;;;;;;;1.43;0.70;;;19.80;52.60;;;;;;5028234;28;20416;-69
2021/12/29 03:50:56;;;;;;;0.83;0.80;;;19.50;52.40;;;;;;5028209;28;20445;-69
2021/12/29 03:53:21;;;;;;;0.70;0.70;;;19.60;52.50;;;;;;5027902;28;20432;-69
2021/12/29 03:55:50;;;;;;;1.13;0.80;;;19.40;59.80;;;;;;5028107;28;20465;-69
2021/12/29 03:58:25;;;;;;;1.67;0.93;;;19.50;52.40;;;;;;5028180;28;20173;-69
2021/12/29 04:00:54;;;;;;;1.43;1.00;;;19.40;52.40;;;;;;5028208;28;20833;-69
2021/12/29 04:03:20;;;;;;;2.70;1.40;;;19.60;52.50;;;;;;5027902;28;20407;-69
2021/12/29 04:05:46;;;;;;;0.93;0.70;;;19.50;52.50;;;;;;5028036;28;20442;-69
2021/12/29 04:08:11;;;;;;;1.30;1.20;;;19.40;52.40;;;;;;5028083;28;20165;-69
2021/12/29 04:10:37;;;;;;;1.10;0.87;;;19.70;52.60;;;;;;5028065;28;20414;-69
2021/12/29 04:13:03;;;;;;;2.10;0.70;;;19.50;52.50;;;;;;5027634;28;20185;-69
2021/12/29 04:15:30;;;;;;;1.10;0.60;;;19.50;52.50;;;;;;5027834;28;20545;-69
2021/12/29 04:18:02;;;;;;;2.93;0.70;;;19.50;52.50;;;;;;5022873;28;20796;-69
2021/12/29 04:23:15;;;;;;;0.77;0.70;;;19.50;52.50;;;;;;5021194;28;20506;-69
2021/12/29 04:25:45;;;;;;;1.23;0.70;;;19.40;52.50;;;;;;5022569;28;20442;-69
2021/12/29 04:28:15;;;;;;;1.73;0.70;;;19.50;53.10;;;;;;5027712;28;20741;-69
2021/12/29 04:30:42;;;;;;;0.70;0.67;;;19.50;52.50;;;;;;5030338;28;20498;-69
2021/12/29 04:33:08;;;;;;;0.73;0.60;;;19.60;52.50;;;;;;5031121;28;20418;-69
2021/12/29 04:35:34;;;;;;;1.10;0.77;;;19.60;52.60;;;;;;5031256;28;20932;-69
2021/12/29 04:38:00;;;;;;;1.10;0.73;;;19.40;52.50;;;;;;5031263;28;20465;-69
2021/12/29 04:40:26;;;;;;;1.37;1.00;;;19.40;52.50;;;;;;5031362;28;20218;-69
2021/12/29 04:42:52;;;;;;;1.53;0.80;;;20.40;53.00;;;;;;5030946;28;20482;-69
2021/12/29 04:45:18;;;;;;;0.80;0.80;;;19.40;52.40;;;;;;5031236;28;20522;-69
2021/12/29 04:47:46;;;;;;;0.80;0.70;;;19.50;52.50;;;;;;5031110;28;20505;-69
2021/12/29 04:50:28;;;;;;;1.10;0.97;;;19.40;52.50;;;;;;5031066;28;20577;-69
2021/12/29 04:52:59;;;;;;;1.43;0.80;;;19.40;52.50;;;;;;5030843;28;20427;-69
2021/12/29 04:55:27;;;;;;;1.30;0.90;;;19.40;52.50;;;;;;5030930;28;20486;-69
2021/12/29 04:57:53;;;;;;;0.70;0.70;;;19.50;52.60;;;;;;5031043;28;20404;-69
2021/12/29 05:00:21;;;;;;;0.60;0.60;;;19.70;52.70;;;;;;5031132;28;20408;-69
2021/12/29 05:02:47;;;;;;;1.67;0.80;;;19.40;52.50;;;;;;5030648;28;20527;-69
2021/12/29 05:05:23;;;;;;;0.83;0.80;;;19.40;52.50;;;;;;5030738;28;20446;-69
2021/12/29 05:10:34;;;;;;;0.60;0.60;;;19.40;52.50;;;;;;5030798;28;20410;-69
2021/12/29 05:13:00;;;;;;;0.90;0.90;;;19.80;52.70;;;;;;5048554;28;20415;-69
2021/12/29 05:15:26;;;;;;;0.83;0.80;;;19.40;52.50;;;;;;5050367;28;20464;-69
2021/12/29 05:17:52;;;;;;;0.77;0.53;;;19.40;52.60;;;;;;5050310;28;20164;-69
2021/12/29 05:20:17;;;;;;;2.70;1.10;;;19.40;52.50;;;;;;5050301;28;20516;-69
2021/12/29 05:22:43;;;;;;;1.07;0.97;;;19.40;52.50;;;;;;5050154;28;20176;-69
2021/12/29 05:25:09;;;;;;;1.50;0.77;;;19.50;52.60;;;;;;5050318;28;20198;-69
2021/12/29 05:27:34;;;;;;;3.17;0.60;;;19.40;52.50;;;;;;5050367;28;20274;-69
2021/12/29 05:30:03;;;;;;;0.60;0.60;;;19.70;52.80;;;;;;5050355;28;20725;-69
2021/12/29 05:32:30;;;;;;;1.90;0.80;;;19.50;52.70;;;;;;5049976;28;20633;-69
2021/12/29 05:34:56;;;;;;;0.80;0.80;;;19.70;52.80;;;;;;5049844;28;20954;-69
2021/12/29 05:37:22;;;;;;;0.70;0.70;;;19.40;52.60;;;;;;5050013;28;20488;-69
2021/12/29 05:39:48;;;;;;;0.90;0.60;;;19.40;52.60;;;;;;5050094;28;20407;-69
2021/12/29 05:42:14;;;;;;;1.47;0.60;;;19.80;52.80;;;;;;5049230;28;20403;-69
2021/12/29 05:44:39;;;;;;;0.87;0.87;;;19.40;52.70;;;;;;5049862;28;20268;-69
2021/12/29 05:47:05;;;;;;;0.97;0.80;;;19.40;52.70;;;;;;5050524;28;20325;-69
2021/12/29 05:49:30;;;;;;;0.93;0.80;;;19.40;52.60;;;;;;5049873;28;20183;-69
2021/12/29 05:51:56;;;;;;;1.20;0.97;;;;;;;;;;5049849;28;20219;-69
2021/12/29 05:54:22;;;;;;;1.63;1.20;;;19.40;52.10;;;;;;5047804;28;20271;-69
2021/12/29 05:56:48;;;;;;;1.40;0.90;;;18.90;52.40;;;;;;5029904;28;20399;-69
2021/12/29 05:59:14;;;;;;;1.10;1.00;;;19.40;52.70;;;;;;5030012;28;20482;-69
2021/12/29 06:01:40;;;;;;;0.53;0.53;;;19.70;52.80;;;;;;5029765;28;20462;-69
2021/12/29 06:04:05;;;;;;;0.67;0.60;;;19.40;52.60;;;;;;5029165;28;20801;-69
2021/12/29 06:06:31;;;;;;;0.70;0.60;;;19.40;52.70;;;;;;5029547;28;20251;-69
2021/12/29 06:08:57;;;;;;;0.90;0.90;;;19.40;52.70;;;;;;5028007;28;20241;-69
2021/12/29 06:11:22;;;;;;;1.20;0.70;;;19.50;52.70;;;;;;5034493;28;20212;-69
2021/12/29 06:13:48;;;;;;;1.07;0.60;;;19.60;52.80;;;;;;5049256;28;20631;-69
2021/12/29 06:16:13;;;;;;;1.23;0.50;;;19.40;52.70;;;;;;5049498;28;20187;-69
2021/12/29 06:18:39;;;;;;;0.70;0.70;;;19.50;52.80;;;;;;5049178;28;20278;-69
2021/12/29 06:21:05;;;;;;;0.90;0.90;;;19.50;52.70;;;;;;5049267;28;20175;-69
2021/12/29 06:23:30;;;;;;;0.70;0.70;;;19.30;59.70;;;;;;5048948;28;20215;-69
2021/12/29 06:25:56;;;;;;;0.97;0.97;;;19.40;52.70;;;;;;5049256;28;20202;-69
2021/12/29 06:28:21;;;;;;;1.30;1.20;;;19.40;52.70;;;;;;5049123;28;20199;-69
2021/12/29 06:30:47;;;;;;;1.40;1.30;;;19.40;52.70;;;;;;5049334;28;20176;-69
2021/12/29 06:33:13;;;;;;;1.07;0.90;;;19.40;52.70;;;;;;5048928;28;20577;-69
2021/12/29 06:35:38;;;;;;;0.97;0.97;;;19.40;52.70;;;;;;5038019;28;20295;-69
2021/12/29 06:38:04;;;;;;;1.07;0.77;;;19.40;52.70;;;;;;5028769;28;20605;-69
2021/12/29 06:40:30;;;;;;;0.73;0.60;;;19.40;52.70;;;;;;5024821;28;20236;-69
2021/12/29 06:42:55;;;;;;;3.10;1.13;;;19.40;52.70;;;;;;5027493;28;20651;-69
2021/12/29 06:45:21;;;;;;;0.93;0.70;;;19.40;53.30;;;;;;5028797;28;20250;-69
2021/12/29 06:47:46;;;;;;;1.00;0.90;;;19.20;52.60;;;;;;5028747;28;20199;-69
2021/12/29 06:50:12;;;;;;;1.47;1.03;;;19.40;52.70;;;;;;5028829;28;20287;-69
2021/12/29 06:52:38;;;;;;;1.07;0.80;;;19.40;52.70;;;;;;5027828;28;20223;-69
2021/12/29 06:55:04;;;;;;;0.60;0.50;;;19.40;52.70;;;;;;5028568;28;20219;-69
2021/12/29 06:57:30;;;;;;;1.17;1.00;;;19.40;52.70;;;;;;5028755;28;20570;-69
2021/12/29 06:59:55;;;;;;;0.60;0.57;;;19.50;52.80;;;;;;5028911;28;20403;-69
2021/12/29 07:02:21;;;;;;;1.00;0.60;;;19.40;52.70;;;;;;5028614;28;20200;-69
2021/12/29 07:04:47;;;;;;;0.90;0.80;;;19.40;52.70;;;;;;5028766;28;20243;-69
2021/12/29 07:07:12;;;;;;;1.10;0.57;;;19.80;52.90;;;;;;5028657;28;20540;-69
2021/12/29 07:09:38;;;;;;;0.90;0.90;;;19.40;52.70;;;;;;5028680;28;20243;-69
2021/12/29 07:12:04;;;;;;;2.97;0.80;;;19.40;52.70;;;;;;5038929;28;20604;-69
2021/12/29 07:14:30;;;;;;;1.27;0.60;;;19.40;52.70;;;;;;5048183;28;20669;-69
2021/12/29 07:16:55;;;;;;;0.93;0.60;;;19.90;52.90;;;;;;5048465;28;20493;-69
2021/12/29 07:19:21;;;;;;;0.73;0.70;;;19.50;52.70;;;;;;5048356;28;20176;-69
2021/12/29 07:21:47;;;;;;;1.90;1.00;;;19.40;52.70;;;;;;5048502;28;20539;-69
2021/12/29 07:24:13;;;;;;;1.07;0.90;;;19.60;52.80;;;;;;5048091;28;20613;-69
2021/12/29 07:26:39;;;;;;;0.70;0.70;;;19.40;52.70;;;;;;5048443;28;20414;-69
2021/12/29 07:29:06;;;;;;;1.43;0.60;;;19.30;52.60;;;;;;5046687;28;20589;-69
2021/12/29 07:31:32;;;;;;;0.70;0.60;;;19.50;52.70;;;;;;5024207;28;20423;-69
2021/12/29 07:33:58;;;;;;;0.97;0.50;;;19.40;52.70;;;;;;5022642;28;20439;-69
2021/12/29 07:36:24;;;;;;;1.00;0.67;;;19.40;52.70;;;;;;5028232;28;20416;-69
2021/12/29 07:38:49;;;;;;;0.60;0.60;;;19.40;52.70;;;;;;5028426;28;20172;-69
2021/12/29 07:41:15;;;;;;;1.13;0.83;;;19.40;52.70;;;;;;5028353;28;20184;-69
2021/12/29 07:43:42;;;;;;;1.07;0.60;;;19.50;64.30;;;;;;5028103;28;20578;-69
2021/12/29 07:46:07;;;;;;;0.50;0.50;;;19.70;52.90;;;;;;5028242;28;20490;-69
2021/12/29 07:48:34;;;;;;;2.43;0.97;;;19.90;52.90;;;;;;5028076;28;20498;-69
2021/12/29 07:51:04;;;;;;;0.63;0.53;;;19.10;52.50;;;;;;5028359;28;20177;-69
2021/12/29 07:53:30;;;;;;;1.80;0.80;;;19.40;61.70;;;;;;5027800;28;20423;-69
2021/12/29 07:55:55;;;;;;;0.63;0.60;;;19.40;52.70;;;;;;5028124;28;20513;-70
2021/12/29 07:58:22;;;;;;;0.77;0.77;;;19.40;52.70;;;;;;5028196;28;20218;-69
2021/12/29 08:00:49;;;;;;;0.60;0.60;;;19.70;52.90;;;;;;5028186;28;20169;-69
2021/12/29 08:03:15;;;;;;;0.70;0.60;;;19.40;52.70;;;;;;5028207;28;20415;-69
2021/12/29 08:05:41;;;;;;;0.83;0.60;;;19.40;52.70;;;;;;5031945;28;20747;-69
2021/12/29 08:08:07;;;;;;;0.80;0.50;;;19.40;53.30;;;;;;5031736;28;20888;-69
2021/12/29 08:10:34;;;;;;;1.30;0.80;;;19.40;52.70;;;;;;5031971;28;20429;-69
2021/12/29 08:13:00;;;;;;;1.10;0.80;;;19.40;52.80;;;;;;5049658;28;20414;-69
2021/12/29 08:15:26;;;;;;;1.27;0.57;;;19.40;52.80;;;;;;5051400;28;20823;-69
2021/12/29 08:17:51;;;;;;;0.67;0.67;;;19.40;53.30;;;;;;5051637;28;20403;-69
2021/12/29 08:20:17;;;;;;;1.57;0.60;;;19.30;52.70;;;;;;5051568;28;20254;-69
2021/12/29 08:22:43;;;;;;;0.73;0.73;;;19.60;52.90;;;;;;5051256;28;20168;-69
2021/12/29 08:25:09;;;;;;;0.63;0.63;;;19.50;52.80;;;;;;5051402;28;20452;-69
2021/12/29 08:27:35;;;;;;;0.80;0.50;;;19.40;52.80;;;;;;5051616;28;20207;-69
2021/12/29 08:30:00;;;;;;;0.70;0.70;;;19.50;52.90;;;;;;5051486;28;20434;-69
2021/12/29 08:32:26;;;;;;;0.70;0.70;;;19.40;52.80;;;;;;5051108;28;20294;-69
2021/12/29 08:34:53;;;;;;;0.80;0.60;;;19.60;52.90;;;;;;5051357;28;20207;-69
2021/12/29 08:37:19;;;;;;;0.80;0.70;;;19.40;52.80;;;;;;5051283;28;20510;-69
2021/12/29 08:39:45;;;;;;;0.50;0.50;;;19.40;52.80;;;;;;5051258;28;20481;-69
2021/12/29 08:42:11;;;;;;;0.70;0.70;;;19.40;52.80;;;;;;5050898;28;20300;-69
2021/12/29 08:44:37;;;;;;;1.00;0.60;;;19.60;52.90;;;;;;5050956;28;20620;-69
2021/12/29 08:47:03;;;;;;;0.67;0.50;;;19.40;52.80;;;;;;5051123;28;20419;-69
2021/12/29 08:49:29;;;;;;;0.73;0.70;;;19.40;52.80;;;;;;5050962;28;20206;-69
2021/12/29 08:51:55;;;;;;;1.00;0.80;;;19.40;52.90;;;;;;5050757;28;21061;-69
2021/12/29 08:54:20;;;;;;;0.83;0.70;;;19.40;52.80;;;;;;5048887;28;20200;-69
2021/12/29 08:56:46;;;;;;;0.70;0.60;;;19.40;52.80;;;;;;5031239;28;20170;-69
2021/12/29 08:59:13;;;;;;;0.80;0.60;;;19.30;52.80;;;;;;5030805;28;20204;-69
2021/12/29 09:01:40;;;;;;;0.90;0.70;;;19.30;52.80;;;;;;5031031;28;20192;-69
2021/12/29 09:04:06;;;;;;;0.60;0.60;;;19.40;52.90;;;;;;5030667;28;20435;-69
2021/12/29 09:06:33;;;;;;;0.73;0.60;;;19.80;53.10;;;;;;5029385;28;20438;-69
2021/12/29 09:08:58;;;;;;;0.60;0.60;;;19.40;52.80;;;;;;5030913;28;20850;-69
2021/12/29 09:11:24;;;;;;;0.87;0.63;;;19.60;52.90;;;;;;5035836;28;20446;-69
2021/12/29 09:13:49;;;;;;;0.60;0.57;;;19.40;52.80;;;;;;5050172;28;20188;-69
2021/12/29 09:16:15;;;;;;;1.00;0.57;;;19.60;52.90;;;;;;5049793;28;20210;-69
2021/12/29 09:18:41;;;;;;;1.33;0.60;;;19.50;52.90;;;;;;5050621;28;20589;-69
2021/12/29 09:21:12;;;;;;;0.60;0.60;;;19.70;53.00;;;;;;5050676;28;20234;-69
2021/12/29 09:23:38;;;;;;;1.03;1.00;;;19.20;60.00;;;;;;5050448;28;20490;-69
2021/12/29 09:26:05;;;;;;;0.60;0.50;;;19.60;52.90;;;;;;5050552;28;20467;-69
2021/12/29 09:28:32;;;;;;;0.60;0.60;;;19.30;52.80;;;;;;5050272;28;20728;-69
2021/12/29 09:30:58;;;;;;;1.10;0.53;;;19.50;52.90;;;;;;5050608;28;20457;-69
2021/12/29 09:33:24;;;;;;;3.07;0.90;;;20.10;53.20;;;;;;5050441;28;20426;-70
2021/12/29 09:36:01;;;;;;;0.70;0.60;;;19.40;52.80;;;;;;5050610;28;20314;-69
2021/12/29 09:38:28;;;;;;;0.50;0.50;;;19.60;53.00;;;;;;5050533;28;20183;-69
2021/12/29 09:40:54;;;;;;;0.70;0.70;;;19.30;52.80;;;;;;5050400;28;20884;-69
2021/12/29 09:43:20;;;;;;;0.80;0.80;;;19.40;52.90;;;;;;5050172;28;20493;-69
2021/12/29 09:45:48;;;;;;;0.60;0.60;;;19.30;52.90;;;;;;5050367;28;20438;-69
2021/12/29 09:48:14;;;;;;;0.50;0.50;;;19.70;53.10;;;;;;5050190;28;20414;-69
2021/12/29 09:50:41;;;;;;;2.00;0.80;;;19.40;52.90;;;;;;5050126;28;20406;-69
2021/12/29 09:53:08;;;;;;;0.63;0.63;;;19.40;52.90;;;;;;5049655;28;20891;-69
2021/12/29 09:55:35;;;;;;;1.00;0.60;;;19.40;52.90;;;;;;5038014;28;20455;-69
2021/12/29 09:58:03;;;;;;;0.70;0.70;;;19.80;53.10;;;;;;5029945;28;20411;-69
2021/12/29 10:00:30;;;;;;;1.10;0.90;;;19.50;53.00;;;;;;5029957;28;20443;-69
2021/12/29 10:02:58;;;;;;;1.50;0.77;;;19.60;53.00;;;;;;5029750;28;20407;-69
2021/12/29 10:05:27;;;;;;;1.17;0.70;;;19.40;52.90;;;;;;5029659;28;20490;-69
2021/12/29 10:08:03;;;;;;;1.30;0.70;;;19.30;52.90;;;;;;5029795;28;20437;-69
2021/12/29 10:10:29;;;;;;;3.00;0.90;;;19.80;53.20;;;;;;5029860;28;20455;-69
2021/12/29 10:12:56;;;;;;;1.10;0.73;;;18.90;52.60;;;;;;5047008;28;20445;-69
2021/12/29 10:15:36;;;;;;;0.60;0.60;;;19.40;52.90;;;;;;5049619;28;20556;-69
2021/12/29 10:18:11;;;;;;;0.60;0.60;;;19.50;53.00;;;;;;5048146;28;20415;-69
2021/12/29 10:20:52;;;;;;;0.60;0.60;;;19.30;52.80;;;;;;5049636;28;20456;-69
2021/12/29 10:23:40;;;;;;;0.83;0.70;;;19.40;52.90;;;;;;5049254;28;20409;-69
2021/12/29 10:26:12;;;;;;;0.93;0.80;;;19.30;52.90;;;;;;5049511;28;20429;-69
2021/12/29 10:28:43;;;;;;;0.97;0.87;;;19.30;52.90;;;;;;5049229;28;20426;-69
2021/12/29 10:31:15;;;;;;;0.80;0.80;;;19.30;52.80;;;;;;5049410;28;20418;-69
2021/12/29 10:33:49;;;;;;;1.30;0.70;;;19.80;64.00;;;;;;5049086;28;20406;-69
2021/12/29 10:36:24;;;;;;;1.17;0.70;;;19.40;52.90;;;;;;5049476;28;20489;-69
2021/12/29 10:39:12;;;;;;;0.93;0.93;;;19.30;52.90;;;;;;5049304;28;20422;-69
2021/12/29 10:41:52;;;;;;;1.70;0.60;;;19.40;52.90;;;;;;5049381;28;20394;-69
2021/12/29 10:44:31;;;;;;;0.93;0.80;;;19.30;52.90;;;;;;5048894;28;20427;-69
2021/12/29 10:46:59;;;;;;;0.80;0.60;;;19.60;53.00;;;;;;5049231;28;20402;-69
2021/12/29 10:49:27;;;;;;;0.80;0.50;;;19.30;52.90;;;;;;5048896;28;20443;-70
2021/12/29 10:51:58;;;;;;;0.70;0.50;;;20.10;53.30;;;;;;5048974;28;20426;-69
2021/12/29 10:54:26;;;;;;;0.80;0.63;;;19.30;52.90;;;;;;5046599;28;20454;-69
2021/12/29 10:57:08;;;;;;;0.63;0.60;;;19.40;52.90;;;;;;5029092;28;20431;-69
2021/12/29 10:59:41;;;;;;;0.60;0.60;;;19.30;52.90;;;;;;5028722;28;20893;-69
2021/12/29 11:02:08;;;;;;;0.90;0.80;;;19.30;52.90;;;;;;5028718;28;20399;-69
2021/12/29 11:04:34;;;;;;;0.70;0.63;;;19.50;53.00;;;;;;5028731;28;20431;-69
2021/12/29 11:07:01;;;;;;;0.93;0.73;;;19.30;52.90;;;;;;5028960;28;20442;-70
2021/12/29 11:09:36;;;;;;;0.60;0.60;;;19.50;53.00;;;;;;5028964;28;20417;-69
2021/12/29 11:12:11;;;;;;;0.50;0.50;;;19.40;53.00;;;;;;5038579;28;20436;-69
2021/12/29 11:14:42;;;;;;;1.33;0.77;;;19.30;52.90;;;;;;5048279;28;20498;-69
2021/12/29 11:17:22;;;;;;;0.60;0.60;;;19.30;52.90;;;;;;5048635;28;20398;-69
2021/12/29 11:19:56;;;;;;;1.33;0.60;;;19.30;52.90;;;;;;5048725;28;20831;-69
2021/12/29 11:22:24;;;;;;;0.60;0.60;;;19.30;52.90;;;;;;5048438;28;20421;-69
2021/12/29 11:24:58;;;;;;;0.73;0.73;;;19.30;52.90;;;;;;5048388;28;20456;-69
2021/12/29 11:27:25;;;;;;;0.70;0.70;;;19.30;52.90;;;;;;5048422;28;20896;-69
2021/12/29 11:30:01;;;;;;;0.87;0.87;;;19.30;53.00;;;;;;5048347;28;20508;-69
2021/12/29 11:32:36;;;;;;;0.70;0.70;;;19.30;52.90;;;;;;5048227;28;20471;-69
2021/12/29 11:35:07;;;;;;;1.10;0.53;;;19.70;53.20;;;;;;5048285;28;20465;-69
2021/12/29 11:37:34;;;;;;;1.27;0.70;;;19.30;53.00;;;;;;5048460;28;20410;-69
2021/12/29 11:40:00;;;;;;;0.60;0.60;;;19.30;52.90;;;;;;5051629;28;20411;-69
2021/12/29 11:42:26;;;;;;;0.77;0.77;;;19.40;53.00;;;;;;5052168;28;20463;-69
2021/12/29 11:44:52;;;;;;;0.80;0.70;;;19.70;53.80;;;;;;5052355;28;20454;-69
2021/12/29 11:47:18;;;;;;;1.00;0.80;;;19.30;53.00;;;;;;5052415;28;20756;-69
2021/12/29 11:49:44;;;;;;;0.80;0.70;;;19.30;53.00;;;;;;5051917;28;20426;-69
2021/12/29 11:52:09;;;;;;;0.87;0.87;;;19.40;53.10;;;;;;5051761;28;20213;-69
2021/12/29 11:55:02;;;;;;;0.70;0.70;;;19.30;53.00;;;;;;5048235;28;20262;-69
2021/12/29 11:57:30;;;;;;;0.60;0.60;;;19.30;53.00;;;;;;5032214;28;20180;-69
2021/12/29 12:00:07;;;;;;;0.90;0.90;;;19.70;53.20;;;;;;5032068;28;20415;-69
2021/12/29 12:02:33;;;;;;;0.97;0.60;;;18.70;52.70;;;;;;5031859;28;20438;-69
2021/12/29 12:05:14;;;;;;;1.40;0.77;;;19.30;53.00;;;;;;5032180;28;20455;-69
2021/12/29 12:07:41;;;;;;;0.70;0.70;;;19.30;53.00;;;;;;5032286;28;20161;-69
2021/12/29 12:10:12;;;;;;;0.60;0.60;;;19.30;53.00;;;;;;5031995;28;20407;-69
2021/12/29 12:12:41;;;;;;;0.97;0.67;;;19.30;53.00;;;;;;5046884;28;20914;-69
2021/12/29 12:15:08;;;;;;;0.80;0.73;;;19.30;53.00;;;;;;5050151;28;20489;-69
2021/12/29 12:17:35;;;;;;;0.87;0.77;;;19.30;53.00;;;;;;5051676;28;20459;-69
2021/12/29 12:20:00;;;;;;;1.37;0.80;;;19.50;53.10;;;;;;5051618;28;20513;-69
2021/12/29 12:22:28;;;;;;;2.53;1.00;;;19.40;53.70;;;;;;5051579;28;20486;-69
2021/12/29 12:24:59;;;;;;;0.60;0.60;;;19.40;53.10;;;;;;5051456;28;20751;-69
2021/12/29 12:27:37;;;;;;;0.60;0.60;;;19.50;53.10;;;;;;5051826;28;20406;-69
2021/12/29 12:30:18;;;;;;;0.93;0.60;;;19.30;53.00;;;;;;5051762;28;20414;-69
2021/12/29 12:32:51;;;;;;;1.20;0.77;;;19.30;53.00;;;;;;5051481;28;20407;-69
2021/12/29 12:35:39;;;;;;;0.63;0.63;;;19.30;53.00;;;;;;5051630;28;20450;-69
2021/12/29 12:38:34;;;;;;;0.60;0.60;;;19.60;53.20;;;;;;5034324;28;20502;-69
2021/12/29 12:41:15;;;;;;;1.20;0.87;;;19.30;53.10;;;;;;5025558;28;20419;-69
2021/12/29 12:43:57;;;;;;;1.20;0.73;;;19.40;64.40;;;;;;5031181;28;20434;-69
2021/12/29 12:46:31;;;;;;;1.00;0.70;;;19.30;53.20;;;;;;5031396;28;20445;-69
2021/12/29 12:48:57;;;;;;;1.47;1.00;;;19.40;53.20;;;;;;5031363;28;20995;-69
2021/12/29 12:51:24;;;;;;;1.03;0.93;;;19.50;53.30;;;;;;5030014;28;20443;-69
2021/12/29 12:53:49;;;;;;;0.80;0.80;;;19.30;53.10;;;;;;5031044;28;20435;-69
2021/12/29 12:56:22;;;;;;;1.67;1.57;;;19.50;53.30;;;;;;5031219;28;21005;-69
2021/12/29 12:58:50;;;;;;;0.83;0.77;;;19.30;53.10;;;;;;5031377;28;20620;-69